West Grove, Iowa
Current Conditions -  °F | °C
As of 8:30 PM on Wednesday 26 Nov 2014 (Local Time) from KTVK Reporting Station
Overcast Overcast  
Wind Chill: 20°   Ceiling: 800
Heat Index: 28°   Visibility: 10mi
Dew Point: 28°   Wind: 9mph
Humidity: 100%   Direction: 360°N
Pressure: 30.25"   Gusts: NA
Location:  40.72°N, 92.56°W
Report Text: KTVK 270230Z AUTO 36008KT 10SM OVC008 M02/M02 A3025 RMK AO2
Loading
Personal Weather Stations






























Interactive Weather Map New forecast layout! Learn more

10-Day Weather Forecast

Advertisements
Track Severe Weather on mobile